»·PEaware :: NWA305 KPDX-KSEA

NWA305 :: KPDX-KSEA

FLIGHT INFORMATION

Flight Status: Arrived
Operator:
Northwest Airlines
More flights by this operator :: More flights under this callsign
Pilot: Anonymous 12254 (12254)
Aircraft: BOEING 727-200
(B722)
More flights by this aircraft type
Origin: KPDX Portland Intl
United States
Destination: KSEA Seattle-Tacoma Intl
United States
More flights between these airports :: More routes between these airports
Route: +PTLD1 COUGA KRIEG HAWKZ7
File this flight plan on PilotEdge
Remarks:
Altitude:
(Current/Filed)
18,000ft
Speed:
(Current/Filed)
350kts
Departed: 02-Nov-20 10:29 AM
Arrived: 02-Nov-20 11:03 AM
Distance/Time
Traveled:
112nm/0:33
Distance/Time
To Go:
Arrived

Flight Plot

Page will automatically refresh every two minutes.

Flight plan parsing failed; only flown route is shown


Map Options




Map Legend


Flown Route
Filed Route
Departure Airport
Arrival Airport
Navaid (VOR, NDB)
Fix

Horizontal Profiles

Position Reports

Time Latitude Longitude Heading Altitude Ground
Speed
02-Nov-20 09:48 45.590264 -122.598346 210 28ft 0kts
02-Nov-20 09:49 45.590264 -122.598346 210 28ft 0kts
02-Nov-20 09:50 45.590264 -122.598346 210 28ft 0kts
02-Nov-20 09:51 45.590264 -122.598346 210 28ft 0kts
02-Nov-20 09:52 45.590264 -122.598346 210 28ft 0kts
02-Nov-20 09:53 45.590264 -122.598346 210 28ft 0kts
02-Nov-20 09:54 45.590264 -122.598346 210 28ft 0kts
02-Nov-20 09:55 45.590264 -122.598346 210 28ft 0kts
02-Nov-20 09:56 45.590264 -122.598346 210 28ft 0kts
02-Nov-20 09:57 45.590264 -122.598346 210 28ft 0kts
02-Nov-20 09:58 45.590264 -122.598346 210 28ft 0kts
02-Nov-20 09:59 45.590264 -122.598346 210 28ft 0kts
02-Nov-20 10:00 45.590264 -122.598346 210 28ft 0kts
02-Nov-20 10:01 45.590264 -122.598346 210 28ft 0kts
02-Nov-20 10:02 45.590264 -122.598346 210 28ft 0kts
02-Nov-20 10:03 45.590264 -122.598346 210 28ft 0kts
02-Nov-20 10:04 45.590264 -122.598346 210 28ft 0kts
02-Nov-20 10:05 45.590264 -122.598346 210 28ft 0kts
02-Nov-20 10:06 45.590264 -122.598346 210 28ft 0kts
02-Nov-20 10:07 45.590264 -122.598346 210 28ft 0kts
02-Nov-20 10:08 45.590264 -122.598346 210 28ft 0kts
02-Nov-20 10:10 45.590264 -122.598346 210 28ft 0kts
02-Nov-20 10:11 45.590264 -122.598346 210 28ft 0kts
02-Nov-20 10:12 45.590264 -122.598346 210 28ft 0kts
02-Nov-20 10:13 45.590264 -122.598346 210 28ft 0kts
02-Nov-20 10:14 45.590264 -122.598346 210 28ft 0kts
02-Nov-20 10:15 45.590264 -122.598346 210 28ft 0kts
02-Nov-20 10:16 45.590264 -122.598346 210 28ft 0kts
02-Nov-20 10:17 45.590747 -122.597655 296 28ft 5kts
02-Nov-20 10:18 45.590741 -122.597642 300 28ft 2kts
02-Nov-20 10:19 45.590848 -122.597937 295 28ft 0kts
02-Nov-20 10:20 45.590848 -122.597937 295 28ft 0kts
02-Nov-20 10:21 45.590848 -122.597937 295 28ft 0kts
02-Nov-20 10:22 45.590848 -122.597937 295 28ft 0kts
02-Nov-20 10:23 45.590848 -122.597937 295 28ft 0kts
02-Nov-20 10:24 45.591328 -122.598733 330 28ft 7kts
02-Nov-20 10:25 45.593195 -122.597712 1 31ft 6kts
02-Nov-20 10:26 45.594561 -122.600408 299 31ft 11kts
02-Nov-20 10:27 45.595546 -122.600658 28 31ft 0kts
02-Nov-20 10:27 45.595627 -122.600596 29 31ft 6kts
02-Nov-20 10:29 45.582254 -122.561579 105 474ft 158kts
02-Nov-20 10:29 45.571960 -122.503481 103 1881ft 214kts
02-Nov-20 10:31 45.557283 -122.399861 102 3817ft 232kts
02-Nov-20 10:31 45.549528 -122.325734 101 5125ft 233kts
02-Nov-20 10:32 45.571371 -122.250833 8 6715ft 245kts
02-Nov-20 10:33 45.640762 -122.253858 356 8358ft 261kts
02-Nov-20 10:34 45.704277 -122.295784 310 10013ft 270kts
02-Nov-20 10:35 45.767551 -122.363072 320 11665ft 296kts
02-Nov-20 10:36 45.836861 -122.431404 322 13472ft 307kts
02-Nov-20 10:37 45.907521 -122.499316 322 15467ft 304kts
02-Nov-20 10:38 45.976522 -122.565698 322 17449ft 293kts
02-Nov-20 10:39 46.045218 -122.632218 323 18032ft 306kts
02-Nov-20 10:40 46.124641 -122.680432 347 18028ft 324kts
02-Nov-20 10:41 46.214753 -122.701463 347 18029ft 336kts
02-Nov-20 10:42 46.307649 -122.721028 350 17831ft 329kts
02-Nov-20 10:43 46.399328 -122.726813 356 16463ft 341kts
02-Nov-20 10:44 46.496140 -122.728611 356 14837ft 351kts
02-Nov-20 10:45 46.592299 -122.731294 355 13064ft 340kts
02-Nov-20 10:46 46.684127 -122.734820 354 12013ft 319kts
02-Nov-20 10:47 46.776998 -122.730926 20 12052ft 355kts
02-Nov-20 10:48 46.861155 -122.649177 35 12017ft 356kts
02-Nov-20 10:49 46.935846 -122.567347 28 11926ft 314kts
02-Nov-20 10:50 47.014506 -122.523501 8 11105ft 295kts
02-Nov-20 10:51 47.093065 -122.497946 4 10218ft 280kts
02-Nov-20 10:52 47.167110 -122.484445 1 10006ft 258kts
02-Nov-20 10:53 47.235395 -122.473858 12 9553ft 257kts
02-Nov-20 10:54 47.306498 -122.461525 2 8894ft 262kts
02-Nov-20 10:55 47.375757 -122.455956 0 8103ft 264kts
02-Nov-20 10:56 47.448761 -122.455445 359 7093ft 256kts
02-Nov-20 10:57 47.517311 -122.455744 358 5989ft 240kts
02-Nov-20 10:58 47.553554 -122.395733 85 4934ft 207kts
02-Nov-20 10:59 47.553749 -122.321301 124 3780ft 157kts
02-Nov-20 11:00 47.515009 -122.305660 182 2171ft 144kts
02-Nov-20 11:01 47.475252 -122.307664 180 658ft 135kts
02-Nov-20 11:02 47.452080 -122.306675 133 424ft 7kts
02-Nov-20 11:03 47.451630 -122.306273 168 422ft 16kts
02-Nov-20 11:04 47.447234 -122.305438 174 403ft 11kts

Navigation Log

Ident Type
Flight plan parsing failed, navigation log unavailable